Time;durP1;ratioP1;P1;durP2;ratioP2;P2;SDS_P1;SDS_P2;PMS_P1;PMS_P2;Temp;Humidity;BMP_temperature;BMP_pressure;BME280_temperature;BME280_humidity;BME280_pressure;Samples;Min_cycle;Max_cycle;Signal;HPM_P1;HPM_P2
2023/10/10 00:01:28;;;;;;;7.83;7.20;;;12.30;99.90;;;;;;5066073;28;20277;-66
2023/10/10 00:03:56;;;;;;;8.10;7.40;;;12.30;99.90;;;;;;5065973;28;20203;-66
2023/10/10 00:06:24;;;;;;;7.73;7.13;;;12.30;99.90;;;;;;5065945;28;20988;-66
2023/10/10 00:08:52;;;;;;;8.07;7.37;;;12.30;99.90;;;;;;5065613;28;20668;-66
2023/10/10 00:11:20;;;;;;;7.50;6.90;;;12.30;99.90;;;;;;5065663;28;20218;-66
2023/10/10 00:13:52;;;;;;;7.53;6.80;;;12.30;99.90;;;;;;5065899;28;20307;-66
2023/10/10 00:16:25;;;;;;;8.00;7.30;;;12.30;99.90;;;;;;5065411;28;20772;-66
2023/10/10 00:18:56;;;;;;;7.60;7.00;;;12.30;99.90;;;;;;5065867;28;20211;-66
2023/10/10 00:21:28;;;;;;;7.37;6.77;;;12.30;99.90;;;;;;5065943;28;20249;-66
2023/10/10 00:23:56;;;;;;;7.43;6.83;;;12.30;99.90;;;;;;5065619;28;20202;-66
2023/10/10 00:26:23;;;;;;;7.17;6.57;;;12.30;99.90;;;;;;5065288;28;20294;-66
2023/10/10 00:28:55;;;;;;;7.07;6.53;;;12.30;99.90;;;;;;5065435;28;20301;-66
2023/10/10 00:31:22;;;;;;;7.37;6.73;;;12.30;99.90;;;;;;5067449;28;20964;-66
2023/10/10 00:33:51;;;;;;;6.90;6.20;;;12.30;99.90;;;;;;5065517;28;20211;-66
2023/10/10 00:36:21;;;;;;;6.93;6.33;;;12.30;99.90;;;;;;5065616;28;20230;-66
2023/10/10 00:38:58;;;;;;;6.80;6.30;;;12.30;99.90;;;;;;5065046;28;20826;-66
2023/10/10 00:41:26;;;;;;;6.90;5.90;;;12.30;99.90;;;;;;5065430;28;20680;-66
2023/10/10 00:43:53;;;;;;;6.53;6.03;;;12.30;99.90;;;;;;5065535;28;20211;-66
2023/10/10 00:46:24;;;;;;;6.50;6.00;;;12.30;99.90;;;;;;5065280;28;20204;-66
2023/10/10 00:48:59;;;;;;;6.87;6.30;;;12.30;99.90;;;;;;5064799;28;20286;-66
2023/10/10 00:51:31;;;;;;;6.80;6.30;;;12.30;99.90;;;;;;5068105;28;20742;-66
2023/10/10 00:56:43;;;;;;;7.30;6.60;;;12.30;99.90;;;;;;5065789;28;20203;-66
2023/10/10 00:59:10;;;;;;;6.73;6.10;;;12.30;99.90;;;;;;5065392;28;20308;-66
2023/10/10 01:01:40;;;;;;;6.13;5.73;;;12.30;99.90;;;;;;5064747;28;20293;-66
2023/10/10 01:04:07;;;;;;;7.37;6.77;;;12.30;99.90;;;;;;5064452;28;20295;-66
2023/10/10 01:06:39;;;;;;;6.83;6.23;;;12.30;99.90;;;;;;5064514;28;20320;-66
2023/10/10 01:09:20;;;;;;;6.90;6.40;;;12.30;99.90;;;;;;5064337;28;20315;-66
2023/10/10 01:11:48;;;;;;;7.57;6.70;;;12.30;99.90;;;;;;5065036;28;20238;-66
2023/10/10 01:14:18;;;;;;;7.93;7.23;;;12.30;99.90;;;;;;5065365;28;20257;-67
2023/10/10 01:16:47;;;;;;;8.87;7.57;;;12.30;99.90;;;;;;5064649;28;20196;-66
2023/10/10 01:19:17;;;;;;;9.10;8.20;;;12.30;99.90;;;;;;5064342;28;20235;-66
2023/10/10 01:21:50;;;;;;;8.27;7.57;;;12.30;99.90;;;;;;5065111;28;20227;-66
2023/10/10 01:24:18;;;;;;;9.37;7.93;;;12.30;99.90;;;;;;5064662;28;20291;-66
2023/10/10 01:26:45;;;;;;;8.67;7.77;;;12.30;99.90;;;;;;5064439;28;20674;-66
2023/10/10 01:29:21;;;;;;;8.57;7.77;;;12.30;99.90;;;;;;5065058;28;20481;-66
2023/10/10 01:31:51;;;;;;;9.10;8.07;;;12.30;99.90;;;;;;5064355;28;20280;-66
2023/10/10 01:34:31;;;;;;;8.63;7.80;;;12.20;99.90;;;;;;5064460;28;20732;-66
2023/10/10 01:37:07;;;;;;;9.50;8.60;;;12.30;99.90;;;;;;5064487;28;20661;-66
2023/10/10 01:39:47;;;;;;;9.00;8.20;;;12.30;99.90;;;;;;5064871;28;20234;-66
2023/10/10 01:42:16;;;;;;;9.43;8.63;;;12.30;99.90;;;;;;5063848;28;20223;-66
2023/10/10 01:44:43;;;;;;;10.30;8.50;;;12.30;99.90;;;;;;5064226;28;20208;-66
2023/10/10 01:47:18;;;;;;;9.10;8.30;;;12.30;99.90;;;;;;5063818;28;20302;-67
2023/10/10 01:49:47;;;;;;;9.17;8.37;;;12.30;99.90;;;;;;5058958;28;20200;-66
2023/10/10 01:52:17;;;;;;;9.20;8.40;;;12.30;99.90;;;;;;5064299;28;20642;-66
2023/10/10 01:54:52;;;;;;;11.20;8.70;;;12.30;99.90;;;;;;5064843;28;20192;-66
2023/10/10 01:57:22;;;;;;;8.07;7.33;;;12.30;99.90;;;;;;5064454;28;20201;-67
2023/10/10 01:59:49;;;;;;;8.37;7.63;;;12.40;99.90;;;;;;5064377;28;20204;-66
2023/10/10 02:02:18;;;;;;;9.73;7.97;;;12.40;99.90;;;;;;5063597;28;20223;-66
2023/10/10 02:04:45;;;;;;;9.10;8.20;;;12.40;99.90;;;;;;5064337;28;20208;-66
2023/10/10 02:07:22;;;;;;;9.37;8.50;;;12.40;99.90;;;;;;5064542;28;20214;-66
2023/10/10 02:10:11;;;;;;;9.23;8.33;;;12.40;99.90;;;;;;5063700;28;20243;-67
2023/10/10 02:12:39;;;;;;;9.17;8.27;;;12.40;99.90;;;;;;5064472;28;20307;-66
2023/10/10 02:15:11;;;;;;;8.87;8.03;;;12.40;99.90;;;;;;5064511;28;20203;-66
2023/10/10 02:17:41;;;;;;;9.07;8.27;;;12.40;99.90;;;;;;5063503;28;20199;-67
2023/10/10 02:20:32;;;;;;;9.13;8.23;;;12.40;99.90;;;;;;5064053;28;20199;-66
2023/10/10 02:23:09;;;;;;;8.93;8.13;;;12.40;99.90;;;;;;5063940;28;20345;-65
2023/10/10 02:25:39;;;;;;;10.10;9.10;;;12.40;99.90;;;;;;5064118;28;20195;-65
2023/10/10 02:28:19;;;;;;;11.70;9.50;;;12.40;99.90;;;;;;5064157;28;20939;-65
2023/10/10 02:30:50;;;;;;;9.77;8.87;;;12.40;99.90;;;;;;5053957;28;20208;-65
2023/10/10 02:33:26;;;;;;;9.83;8.83;;;12.40;99.90;;;;;;5061968;28;20261;-65
2023/10/10 02:35:57;;;;;;;9.67;8.73;;;12.40;99.90;;;;;;5066552;28;20406;-65
2023/10/10 02:38:31;;;;;;;12.27;9.23;;;12.40;99.90;;;;;;5066418;28;20227;-65
2023/10/10 02:41:14;;;;;;;10.60;9.50;;;12.40;99.90;;;;;;5065578;28;20936;-65
2023/10/10 02:43:54;;;;;;;10.20;9.30;;;12.40;99.90;;;;;;5065970;28;20200;-66
2023/10/10 02:46:33;;;;;;;10.53;9.47;;;12.50;99.90;;;;;;5057699;28;20271;-66
2023/10/10 02:49:09;;;;;;;11.70;9.53;;;12.40;99.90;;;;;;5046067;28;20623;-65
2023/10/10 02:51:40;;;;;;;11.87;9.60;;;12.40;99.90;;;;;;5046159;28;20199;-65
2023/10/10 02:54:21;;;;;;;12.90;10.27;;;12.50;99.90;;;;;;5045733;28;20599;-65
2023/10/10 02:56:50;;;;;;;10.63;9.63;;;12.50;99.90;;;;;;5058520;28;20261;-65
2023/10/10 02:59:22;;;;;;;11.00;9.80;;;12.50;99.90;;;;;;5066016;28;20257;-65
2023/10/10 03:02:04;;;;;;;11.50;10.30;;;12.50;99.90;;;;;;5064112;28;20613;-65
2023/10/10 03:07:19;;;;;;;11.00;9.90;;;12.50;99.90;;;;;;5055323;28;20599;-65
2023/10/10 03:10:14;;;;;;;11.87;10.77;;;12.50;99.90;;;;;;5046362;28;20232;-65
2023/10/10 03:12:43;;;;;;;10.70;9.60;;;12.50;99.90;;;;;;5047090;28;20207;-65
2023/10/10 03:15:14;;;;;;;10.27;9.17;;;12.50;99.90;;;;;;5046608;28;20750;-65
2023/10/10 03:17:48;;;;;;;12.17;10.30;;;12.50;99.90;;;;;;5066221;28;20211;-65
2023/10/10 03:20:25;;;;;;;12.60;10.37;;;12.60;99.90;;;;;;5066705;28;20806;-65
2023/10/10 03:25:48;;;;;;;10.20;9.27;;;12.60;99.90;;;;;;5055601;28;20371;-65
2023/10/10 03:28:19;;;;;;;12.13;10.93;;;12.60;99.90;;;;;;5066825;28;20210;-65
2023/10/10 03:31:03;;;;;;;11.30;10.20;;;12.60;99.90;;;;;;5066420;28;20198;-65
2023/10/10 03:33:35;;;;;;;12.50;11.13;;;12.60;99.90;;;;;;5065154;28;20195;-65
2023/10/10 05:23:34;;;;;;;8.87;5.60;;;13.20;99.90;;;;;;5002344;28;20271;-65
2023/10/10 05:26:02;;;;;;;6.63;5.93;;;13.20;99.90;;;;;;5041257;28;20203;-65
2023/10/10 05:28:32;;;;;;;8.03;5.90;;;13.20;99.90;;;;;;5064685;28;20211;-65
2023/10/10 05:31:02;;;;;;;6.90;5.50;;;13.20;99.90;;;;;;5064815;28;20274;-65
2023/10/10 05:33:30;;;;;;;5.90;5.30;;;13.20;99.90;;;;;;5064785;28;20234;-65
2023/10/10 05:36:06;;;;;;;5.67;5.17;;;13.20;99.90;;;;;;5064549;28;20988;-65
2023/10/10 05:38:39;;;;;;;7.03;5.57;;;13.20;99.90;;;;;;5064847;28;20227;-65
2023/10/10 05:41:06;;;;;;;9.33;5.60;;;13.20;99.90;;;;;;5064768;28;20206;-65
2023/10/10 05:43:34;;;;;;;6.47;5.40;;;13.20;99.90;;;;;;5064580;28;20339;-65
2023/10/10 05:46:03;;;;;;;6.17;5.53;;;13.30;99.90;;;;;;5064388;28;20211;-65
2023/10/10 05:48:31;;;;;;;6.17;5.57;;;13.30;99.90;;;;;;5064215;28;20206;-65
2023/10/10 05:50:58;;;;;;;6.80;5.20;;;13.30;99.90;;;;;;5056245;28;20678;-65
2023/10/10 05:53:25;;;;;;;7.40;5.60;;;13.30;99.90;;;;;;5044725;28;20218;-65
2023/10/10 05:55:58;;;;;;;7.20;5.30;;;13.30;99.90;;;;;;5053612;28;20215;-65
2023/10/10 05:58:26;;;;;;;8.40;5.40;;;13.30;99.90;;;;;;5064420;28;20199;-65
2023/10/10 06:00:54;;;;;;;14.10;6.43;;;13.30;99.90;;;;;;5064518;28;20287;-65
2023/10/10 06:03:22;;;;;;;9.87;6.17;;;13.30;99.90;;;;;;5065898;28;20262;-65
2023/10/10 06:05:50;;;;;;;8.50;6.23;;;13.30;99.90;;;;;;5068318;28;20593;-65
2023/10/10 06:08:17;;;;;;;10.20;5.83;;;13.30;99.90;;;;;;5067936;28;20716;-65
2023/10/10 06:10:44;;;;;;;6.60;5.90;;;13.30;99.90;;;;;;5068406;28;20208;-65
2023/10/10 06:13:13;;;;;;;7.80;5.67;;;13.30;99.90;;;;;;5068406;28;20249;-65
2023/10/10 06:15:40;;;;;;;8.20;5.90;;;13.40;99.90;;;;;;5068006;28;20298;-66
2023/10/10 06:18:12;;;;;;;7.97;5.40;;;13.40;99.90;;;;;;5067269;28;20289;-65
2023/10/10 06:20:41;;;;;;;6.17;5.03;;;13.40;99.90;;;;;;5068060;28;20192;-65
2023/10/10 06:23:09;;;;;;;8.00;5.03;;;13.40;99.90;;;;;;5067919;28;20231;-65
2023/10/10 06:25:40;;;;;;;7.90;5.47;;;13.40;99.90;;;;;;5067822;28;20227;-65
2023/10/10 06:28:22;;;;;;;8.30;5.47;;;13.40;99.90;;;;;;5067784;28;20411;-65
2023/10/10 06:30:53;;;;;;;5.80;4.90;;;13.40;99.90;;;;;;5048648;28;20243;-65
2023/10/10 06:33:27;;;;;;;7.60;5.33;;;13.40;99.90;;;;;;5047625;28;20283;-65
2023/10/10 06:36:18;;;;;;;9.57;5.63;;;13.50;99.90;;;;;;5047419;28;20192;-65
2023/10/10 06:38:45;;;;;;;7.53;5.47;;;13.50;99.90;;;;;;5047611;28;20239;-65
2023/10/10 06:41:17;;;;;;;5.87;4.87;;;13.50;99.90;;;;;;5047656;28;20212;-64
2023/10/10 06:43:46;;;;;;;7.87;5.60;;;13.50;99.90;;;;;;5047815;28;20235;-64
2023/10/10 06:46:17;;;;;;;5.80;5.13;;;13.50;99.90;;;;;;5065287;28;20207;-65
2023/10/10 06:48:47;;;;;;;9.23;6.43;;;13.50;99.90;;;;;;5067205;28;20200;-64
2023/10/10 06:51:15;;;;;;;8.57;6.47;;;13.60;99.90;;;;;;5067199;28;20208;-64
2023/10/10 06:53:45;;;;;;;9.73;6.00;;;13.60;99.90;;;;;;5067319;28;20203;-64
2023/10/10 06:56:18;;;;;;;7.60;6.23;;;13.60;99.90;;;;;;5067351;28;20212;-64
2023/10/10 06:58:46;;;;;;;9.97;5.80;;;13.60;99.90;;;;;;5067317;28;20694;-65
2023/10/10 07:01:19;;;;;;;11.70;6.07;;;13.60;99.90;;;;;;5067343;28;20725;-64
2023/10/10 07:03:54;;;;;;;8.77;6.00;;;13.60;99.90;;;;;;5067307;28;20228;-65
2023/10/10 07:06:22;;;;;;;10.10;6.23;;;13.60;99.90;;;;;;5067320;28;20215;-64
2023/10/10 07:09:14;;;;;;;7.57;6.20;;;13.70;99.90;;;;;;5067010;28;20244;-65
2023/10/10 07:11:39;;;;;;;9.57;6.40;;;13.70;99.90;;;;;;5067008;28;20211;-65
2023/10/10 07:14:09;;;;;;;10.50;6.17;;;13.80;99.90;;;;;;5067079;28;20290;-64
2023/10/10 07:16:42;;;;;;;10.80;6.50;;;13.80;99.90;;;;;;5067121;28;20219;-64
2023/10/10 07:19:19;;;;;;;9.37;6.97;;;13.80;99.90;;;;;;5066678;28;20207;-65
2023/10/10 07:21:45;;;;;;;10.17;6.60;;;13.80;99.90;;;;;;5067191;28;20286;-64
2023/10/10 07:24:14;;;;;;;12.30;6.17;;;13.90;99.90;;;;;;5066379;28;20245;-65
2023/10/10 07:26:42;;;;;;;11.13;6.60;;;13.80;99.90;;;;;;5051096;28;20236;-65
2023/10/10 07:32:07;;;;;;;6.30;5.70;;;13.90;99.90;;;;;;5040872;28;20231;-65
2023/10/10 07:34:39;;;;;;;11.90;6.53;;;13.90;99.90;;;;;;5066225;28;20195;-65
2023/10/10 07:37:08;;;;;;;9.43;6.30;;;13.90;99.90;;;;;;5066220;28;20342;-65
2023/10/10 07:39:36;;;;;;;11.20;6.83;;;13.90;99.90;;;;;;5066445;28;20302;-65
2023/10/10 07:42:08;;;;;;;9.87;6.47;;;13.90;99.90;;;;;;5081050;28;20206;-65
2023/10/10 07:44:36;;;;;;;10.07;6.60;;;13.90;99.90;;;;;;5069132;28;20226;-65
2023/10/10 07:47:25;;;;;;;8.10;7.23;;;13.90;99.90;;;;;;5066180;28;20330;-65
2023/10/10 07:49:52;;;;;;;10.50;7.10;;;13.90;99.90;;;;;;5046427;28;20651;-65
2023/10/10 07:52:20;;;;;;;9.13;7.03;;;13.90;99.90;;;;;;5046422;28;20223;-65
2023/10/10 07:54:51;;;;;;;8.27;7.03;;;14.00;99.90;;;;;;5046356;28;20215;-65
2023/10/10 07:57:22;;;;;;;8.67;7.03;;;14.00;99.90;;;;;;5046870;28;20291;-65
2023/10/10 07:59:54;;;;;;;10.20;6.97;;;14.00;99.90;;;;;;5055030;28;20207;-65
2023/10/10 08:02:31;;;;;;;7.30;6.30;;;14.00;99.90;;;;;;5066019;28;20192;-65
2023/10/10 08:05:01;;;;;;;8.03;6.50;;;14.10;99.90;;;;;;5066215;28;20211;-65
2023/10/10 08:07:28;;;;;;;8.67;6.20;;;14.10;99.90;;;;;;5066483;28;20228;-65
2023/10/10 08:12:36;;;;;;;7.27;6.13;;;14.20;99.90;;;;;;5065343;28;20203;-65
2023/10/10 08:15:19;;;;;;;8.23;6.50;;;14.20;99.90;;;;;;5066034;28;20496;-65
2023/10/10 08:17:52;;;;;;;8.90;6.20;;;14.20;99.90;;;;;;5085480;28;20656;-65
2023/10/10 08:20:34;;;;;;;8.17;5.87;;;14.30;99.90;;;;;;5085985;28;20221;-65
2023/10/10 08:23:02;;;;;;;7.73;6.00;;;14.30;99.90;;;;;;5068924;28;20255;-65
2023/10/10 08:25:29;;;;;;;6.53;5.33;;;14.30;99.90;;;;;;5061616;28;20291;-65
2023/10/10 08:27:58;;;;;;;8.33;5.93;;;14.30;99.90;;;;;;5044869;28;20923;-65
2023/10/10 08:30:26;;;;;;;7.50;5.93;;;14.30;99.90;;;;;;5045841;28;20243;-65
2023/10/10 08:32:56;;;;;;;9.20;6.17;;;14.30;99.90;;;;;;5045139;28;20212;-65
2023/10/10 08:35:23;;;;;;;9.50;6.90;;;14.40;99.90;;;;;;5045956;28;20303;-65
2023/10/10 08:37:51;;;;;;;8.80;5.63;;;14.40;99.90;;;;;;5056220;28;20338;-65
2023/10/10 08:40:20;;;;;;;7.57;5.80;;;14.50;99.90;;;;;;5052428;28;20208;-65
2023/10/10 08:42:49;;;;;;;7.47;5.43;;;14.40;99.90;;;;;;5045362;28;20208;-65
2023/10/10 08:45:23;;;;;;;8.50;5.77;;;14.50;99.90;;;;;;5059816;28;20211;-65
2023/10/10 08:47:52;;;;;;;5.70;5.20;;;14.60;99.90;;;;;;5045145;28;20692;-65
2023/10/10 08:50:23;;;;;;;5.80;5.13;;;14.60;99.90;;;;;;5045403;28;20204;-65
2023/10/10 08:52:50;;;;;;;6.43;5.23;;;14.60;99.90;;;;;;5045241;28;20203;-65
2023/10/10 08:55:18;;;;;;;6.47;5.03;;;14.60;99.90;;;;;;5047247;28;20295;-65
2023/10/10 08:57:45;;;;;;;4.50;4.10;;;14.70;99.90;;;;;;5064871;28;20231;-65
2023/10/10 09:00:17;;;;;;;4.70;4.33;;;14.70;99.90;;;;;;5064786;28;20242;-65
2023/10/10 09:02:45;;;;;;;5.07;4.50;;;14.70;99.90;;;;;;5064502;28;20205;-65
2023/10/10 09:05:14;;;;;;;4.90;4.40;;;14.70;99.90;;;;;;5065014;28;20674;-65
2023/10/10 09:07:43;;;;;;;7.93;4.00;;;14.60;99.90;;;;;;5064980;28;20613;-66
2023/10/10 09:10:14;;;;;;;4.73;3.97;;;14.60;99.90;;;;;;5064934;28;20202;-65
2023/10/10 09:12:55;;;;;;;4.63;3.90;;;14.60;99.90;;;;;;5064718;28;20571;-65
2023/10/10 09:15:23;;;;;;;4.10;3.80;;;14.70;99.90;;;;;;5065069;28;20199;-65
2023/10/10 09:17:55;;;;;;;4.40;3.67;;;14.60;99.90;;;;;;5059367;28;20247;-65
2023/10/10 09:20:28;;;;;;;3.93;3.27;;;14.60;99.90;;;;;;5044377;28;20734;-65
2023/10/10 09:23:02;;;;;;;4.17;3.20;;;14.80;99.90;;;;;;5044446;28;20189;-65
2023/10/10 09:25:42;;;;;;;3.80;3.23;;;14.70;99.90;;;;;;5045346;28;20200;-65
2023/10/10 09:28:11;;;;;;;4.77;3.63;;;14.80;99.90;;;;;;5044235;28;21007;-65
2023/10/10 09:30:45;;;;;;;5.50;3.80;;;14.80;99.90;;;;;;5044808;28;20204;-65
2023/10/10 09:33:22;;;;;;;7.50;3.93;;;14.90;99.90;;;;;;5047355;28;20190;-65
2023/10/10 09:35:53;;;;;;;3.53;3.23;;;14.90;99.90;;;;;;5064466;28;20207;-64
2023/10/10 09:38:26;;;;;;;3.63;3.33;;;15.00;99.90;;;;;;5065641;28;20231;-65
2023/10/10 09:41:10;;;;;;;3.13;2.73;;;15.00;99.90;;;;;;5068850;28;20204;-65
2023/10/10 09:43:49;;;;;;;4.43;3.30;;;15.00;99.90;;;;;;5068742;28;20588;-65
2023/10/10 09:46:23;;;;;;;3.53;2.63;;;15.00;99.90;;;;;;5068833;28;20207;-64
2023/10/10 09:49:17;;;;;;;3.33;3.03;;;15.00;99.90;;;;;;5068485;28;20228;-65
2023/10/10 09:54:35;;;;;;;4.13;3.30;;;14.90;99.90;;;;;;5068620;28;20322;-66
2023/10/10 09:57:08;;;;;;;4.17;2.97;;;14.90;99.90;;;;;;5068336;28;20196;-65
2023/10/10 09:59:37;;;;;;;3.63;3.00;;;14.90;99.90;;;;;;5068564;28;20257;-65
2023/10/10 10:02:06;;;;;;;5.23;3.30;;;14.90;99.90;;;;;;5068599;28;20217;-65
2023/10/10 10:04:41;;;;;;;3.00;2.80;;;14.80;99.90;;;;;;5068427;28;20262;-65
2023/10/10 10:07:41;;;;;;;3.33;3.00;;;14.80;99.90;;;;;;5068774;28;20278;-65
2023/10/10 10:10:20;;;;;;;3.23;3.00;;;14.80;99.90;;;;;;5048262;28;20200;-65
2023/10/10 10:13:08;;;;;;;3.20;2.90;;;14.80;99.90;;;;;;5048119;28;20204;-65
2023/10/10 10:15:49;;;;;;;3.33;3.03;;;14.90;99.90;;;;;;5064840;28;20204;-65
2023/10/10 10:18:26;;;;;;;3.13;2.90;;;14.90;99.90;;;;;;5067611;28;20739;-65
2023/10/10 10:21:13;;;;;;;3.73;3.30;;;15.00;99.90;;;;;;5067907;28;20225;-65
2023/10/10 10:23:46;;;;;;;3.43;2.90;;;15.00;99.90;;;;;;5067857;28;20768;-65
2023/10/10 10:26:31;;;;;;;3.93;3.00;;;15.10;99.90;;;;;;5058431;28;20558;-65
2023/10/10 10:29:00;;;;;;;4.10;3.80;;;15.10;99.90;;;;;;5047729;28;20685;-65
2023/10/10 10:31:30;;;;;;;6.47;3.50;;;15.20;99.90;;;;;;5067467;28;20651;-65
2023/10/10 10:34:06;;;;;;;4.33;3.20;;;15.20;99.90;;;;;;5067284;28;20302;-65
2023/10/10 10:36:41;;;;;;;5.87;3.20;;;15.20;99.90;;;;;;5067375;28;20720;-65
2023/10/10 10:39:20;;;;;;;3.47;3.17;;;15.20;99.90;;;;;;5067685;28;20670;-65
2023/10/10 10:41:54;;;;;;;3.43;3.13;;;15.20;99.90;;;;;;5067652;28;20725;-65
2023/10/10 10:44:45;;;;;;;6.20;2.93;;;15.20;99.90;;;;;;5067597;28;20251;-65
2023/10/10 10:47:45;;;;;;;4.87;3.00;;;15.20;99.90;;;;;;5067888;28;20223;-65
2023/10/10 10:50:40;;;;;;;3.40;2.90;;;15.20;99.90;;;;;;5046273;28;20679;-65
2023/10/10 10:53:20;;;;;;;3.87;3.57;;;15.20;99.90;;;;;;5047597;28;20211;-65
2023/10/10 10:55:59;;;;;;;3.13;2.87;;;15.20;99.90;;;;;;5047946;28;20541;-65
2023/10/10 10:58:27;;;;;;;5.63;3.77;;;15.30;99.90;;;;;;5047769;28;20196;-64
2023/10/10 11:01:00;;;;;;;3.10;2.90;;;15.30;99.90;;;;;;5047366;28;20247;-65
2023/10/10 11:03:33;;;;;;;3.30;2.60;;;15.40;99.90;;;;;;5047395;28;20200;-65
2023/10/10 11:06:00;;;;;;;3.17;2.73;;;15.40;99.90;;;;;;5066812;28;20791;-66
2023/10/10 11:11:23;;;;;;;4.27;2.90;;;15.50;99.90;;;;;;5066594;28;20203;-65
2023/10/10 11:13:54;;;;;;;5.33;2.97;;;15.50;99.90;;;;;;5067226;28;20242;-65
2023/10/10 11:16:28;;;;;;;3.00;2.70;;;15.60;99.90;;;;;;5067032;28;20207;-65
2023/10/10 11:18:58;;;;;;;3.37;2.70;;;15.60;99.90;;;;;;5066815;28;20290;-65
2023/10/10 11:21:28;;;;;;;3.97;3.03;;;15.60;99.90;;;;;;5067240;28;20219;-65
2023/10/10 11:23:59;;;;;;;3.37;3.07;;;15.70;99.90;;;;;;5066984;28;20342;-65
2023/10/10 11:26:34;;;;;;;6.27;3.30;;;15.80;99.90;;;;;;5057880;28;20200;-65
2023/10/10 11:29:20;;;;;;;4.90;2.73;;;15.80;99.90;;;;;;5058784;28;20294;-65
2023/10/10 11:32:06;;;;;;;6.03;3.17;;;15.90;99.90;;;;;;5066881;28;20294;-65
2023/10/10 11:34:42;;;;;;;4.13;2.20;;;15.90;99.90;;;;;;5047696;28;20220;-65
2023/10/10 11:37:14;;;;;;;5.57;2.97;;;15.90;99.90;;;;;;5046610;28;20234;-65
2023/10/10 11:39:48;;;;;;;3.40;3.03;;;15.90;99.90;;;;;;5046921;28;20295;-65
2023/10/10 11:42:29;;;;;;;2.87;2.50;;;15.90;99.90;;;;;;5046990;28;20897;-65
2023/10/10 11:45:05;;;;;;;3.13;2.80;;;15.90;99.90;;;;;;5053513;28;20335;-65
2023/10/10 11:47:38;;;;;;;4.10;2.93;;;16.00;99.90;;;;;;5065773;28;20217;-65
2023/10/10 11:50:11;;;;;;;2.73;2.43;;;15.90;99.90;;;;;;5066110;28;20223;-65
2023/10/10 11:52:51;;;;;;;4.00;2.70;;;15.90;99.90;;;;;;5066200;28;20218;-65
2023/10/10 11:55:20;;;;;;;5.73;3.40;;;15.90;99.90;;;;;;5066634;28;20191;-65
2023/10/10 11:57:49;;;;;;;2.73;2.53;;;15.90;99.90;;;;;;5066316;28;20241;-65
2023/10/10 12:00:22;;;;;;;4.03;3.33;;;15.90;99.90;;;;;;5061317;28;20220;-65
2023/10/10 12:02:50;;;;;;;4.10;3.70;;;15.90;99.90;;;;;;5045968;28;20203;-65
2023/10/10 12:08:07;;;;;;;5.03;2.80;;;15.90;99.90;;;;;;5045728;28;20612;-65
2023/10/10 12:10:47;;;;;;;3.07;2.77;;;15.90;99.90;;;;;;5046261;28;20220;-65
2023/10/10 12:13:33;;;;;;;5.03;2.57;;;15.90;99.90;;;;;;5045708;28;20217;-65
2023/10/10 12:16:07;;;;;;;3.50;2.73;;;16.00;99.90;;;;;;5050998;28;20215;-65
2023/10/10 12:18:34;;;;;;;2.87;2.43;;;16.00;99.90;;;;;;5065404;28;20191;-65
2023/10/10 12:21:03;;;;;;;2.67;2.30;;;16.10;99.90;;;;;;5065607;28;20210;-65
2023/10/10 12:23:31;;;;;;;4.10;2.80;;;16.10;99.90;;;;;;5065634;28;20231;-65
2023/10/10 12:25:59;;;;;;;2.20;2.07;;;16.10;99.90;;;;;;5047381;28;20966;-65
2023/10/10 12:28:27;;;;;;;2.73;2.40;;;16.10;99.90;;;;;;5045647;28;20708;-65
2023/10/10 12:30:56;;;;;;;2.97;2.10;;;16.10;99.90;;;;;;5064660;28;20302;-65
2023/10/10 12:33:25;;;;;;;3.37;2.30;;;16.10;99.90;;;;;;5065098;28;20212;-65
2023/10/10 12:35:52;;;;;;;2.77;2.43;;;16.10;99.90;;;;;;5065225;28;20872;-65
2023/10/10 12:38:21;;;;;;;1.97;1.83;;;16.10;99.90;;;;;;5064970;28;20236;-65
2023/10/10 12:40:49;;;;;;;3.00;2.27;;;16.10;99.90;;;;;;5065487;28;20211;-65
2023/10/10 12:43:16;;;;;;;2.43;2.20;;;16.10;99.90;;;;;;5065317;28;20308;-65
2023/10/10 12:45:43;;;;;;;5.33;4.93;;;16.10;99.90;;;;;;5065469;28;20330;-65
2023/10/10 12:48:14;;;;;;;5.67;5.17;;;16.10;99.90;;;;;;5064844;28;20220;-65
2023/10/10 12:50:44;;;;;;;2.70;2.50;;;16.20;99.90;;;;;;5065445;28;20230;-64
2023/10/10 12:53:15;;;;;;;2.30;2.10;;;16.20;99.90;;;;;;5065286;28;20615;-65
2023/10/10 12:55:48;;;;;;;2.57;2.00;;;16.40;99.90;;;;;;5065405;28;20200;-65
2023/10/10 12:58:16;;;;;;;2.90;2.30;;;16.50;99.90;;;;;;5065477;28;20195;-65
2023/10/10 13:00:50;;;;;;;2.30;2.13;;;16.50;99.90;;;;;;5065189;28;20214;-65
2023/10/10 13:03:22;;;;;;;2.80;2.10;;;16.60;99.90;;;;;;5064659;28;20208;-65
2023/10/10 13:05:52;;;;;;;3.40;2.03;;;16.80;99.90;;;;;;5065041;28;20223;-65
2023/10/10 13:08:22;;;;;;;3.40;2.00;;;16.90;99.90;;;;;;5064962;28;20235;-65
2023/10/10 13:10:54;;;;;;;4.73;3.07;;;16.90;99.90;;;;;;5064954;28;20202;-65
2023/10/10 13:13:27;;;;;;;2.37;1.90;;;17.00;99.90;;;;;;5064038;28;20203;-65
2023/10/10 13:16:07;;;;;;;2.60;2.27;;;17.10;99.90;;;;;;5064746;28;20218;-65
2023/10/10 13:18:35;;;;;;;4.30;2.37;;;17.10;99.90;;;;;;5064419;28;20196;-65
2023/10/10 13:21:04;;;;;;;2.10;2.00;;;17.20;99.90;;;;;;5061470;28;20213;-65
2023/10/10 13:23:31;;;;;;;2.23;1.80;;;17.50;99.90;;;;;;5062748;28;20665;-65
2023/10/10 13:25:58;;;;;;;3.13;2.27;;;17.50;99.90;;;;;;5055375;28;20232;-66
2023/10/10 13:28:25;;;;;;;2.50;2.03;;;17.60;99.90;;;;;;5043176;28;20243;-65
2023/10/10 13:30:52;;;;;;;1.80;1.70;;;17.80;99.90;;;;;;5045490;28;20369;-66
2023/10/10 13:33:20;;;;;;;2.43;2.00;;;17.80;99.90;;;;;;5062947;28;20301;-65
2023/10/10 13:35:48;;;;;;;1.83;1.73;;;17.50;99.90;;;;;;5062782;28;20713;-65
2023/10/10 13:38:16;;;;;;;3.03;2.30;;;17.40;99.90;;;;;;5063253;28;20295;-65
2023/10/10 13:40:46;;;;;;;3.83;2.00;;;17.20;99.90;;;;;;5062996;28;20199;-65
2023/10/10 13:43:16;;;;;;;4.33;2.40;;;17.00;99.90;;;;;;5063084;28;20211;-66
2023/10/10 13:45:44;;;;;;;2.17;2.07;;;17.00;99.90;;;;;;5062856;28;20266;-66
2023/10/10 13:48:13;;;;;;;2.43;2.20;;;16.90;99.90;;;;;;5062471;28;20207;-66
2023/10/10 13:50:44;;;;;;;2.93;2.40;;;16.80;99.90;;;;;;5062597;28;20200;-66
2023/10/10 13:53:13;;;;;;;2.30;2.10;;;16.70;99.90;;;;;;5062795;28;20215;-66
2023/10/10 13:55:43;;;;;;;2.70;2.10;;;16.70;99.90;;;;;;5062519;28;20753;-66
2023/10/10 13:58:12;;;;;;;4.40;2.37;;;16.70;99.90;;;;;;5062962;28;20299;-66
2023/10/10 14:00:41;;;;;;;3.77;2.23;;;16.60;99.90;;;;;;5062562;28;20235;-66
2023/10/10 14:03:08;;;;;;;2.53;2.33;;;16.60;99.90;;;;;;5062771;28;20203;-66
2023/10/10 14:05:36;;;;;;;3.07;2.30;;;16.60;99.90;;;;;;5062351;28;20264;-66
2023/10/10 14:08:07;;;;;;;2.57;1.90;;;16.60;99.90;;;;;;5062157;28;20242;-66
2023/10/10 14:10:42;;;;;;;2.37;2.10;;;16.70;99.90;;;;;;5062480;28;20653;-66
2023/10/10 14:13:23;;;;;;;2.43;1.70;;;16.70;99.90;;;;;;5062354;28;20355;-66
2023/10/10 14:15:57;;;;;;;2.40;2.23;;;16.60;99.90;;;;;;5062286;28;20204;-66
2023/10/10 14:18:26;;;;;;;3.17;2.53;;;16.60;99.90;;;;;;5045396;28;20214;-66
2023/10/10 14:20:54;;;;;;;2.00;1.90;;;16.60;99.90;;;;;;5076300;28;20294;-66
2023/10/10 14:23:22;;;;;;;2.10;1.90;;;16.60;99.90;;;;;;5063903;28;20239;-66
2023/10/10 14:25:50;;;;;;;5.27;4.77;;;16.60;99.90;;;;;;5059842;28;20330;-66
2023/10/10 14:28:19;;;;;;;3.70;3.03;;;16.60;99.90;;;;;;5055213;28;20199;-66
2023/10/10 14:30:48;;;;;;;4.63;2.30;;;16.60;99.90;;;;;;5065306;28;20200;-66
2023/10/10 14:33:16;;;;;;;5.60;4.33;;;16.60;99.90;;;;;;5065583;28;20219;-66
2023/10/10 14:35:44;;;;;;;2.20;2.00;;;16.60;99.90;;;;;;5065461;28;20701;-66
2023/10/10 14:38:14;;;;;;;2.10;2.00;;;16.60;99.90;;;;;;5065647;28;20543;-66
2023/10/10 14:40:41;;;;;;;2.30;2.10;;;16.60;99.90;;;;;;5066133;28;20249;-66
2023/10/10 14:43:11;;;;;;;2.03;1.90;;;16.60;99.90;;;;;;5066357;28;20239;-66
2023/10/10 14:45:42;;;;;;;2.30;2.07;;;16.50;99.90;;;;;;5066124;28;20231;-66
2023/10/10 14:48:10;;;;;;;2.17;2.00;;;16.50;99.90;;;;;;5065472;28;20196;-66
2023/10/10 14:50:38;;;;;;;2.03;1.70;;;16.50;99.90;;;;;;5065587;28;20214;-66
2023/10/10 14:53:08;;;;;;;1.90;1.80;;;16.50;99.90;;;;;;5065813;28;20210;-66
2023/10/10 14:55:44;;;;;;;3.23;1.97;;;16.50;99.90;;;;;;5065840;28;20208;-65
2023/10/10 14:58:13;;;;;;;3.40;2.30;;;16.50;99.90;;;;;;5065301;28;20188;-66
2023/10/10 15:00:41;;;;;;;2.20;2.00;;;16.50;99.90;;;;;;5065292;28;20207;-65
2023/10/10 15:03:15;;;;;;;3.23;2.43;;;16.50;99.90;;;;;;5065453;28;20906;-65
2023/10/10 15:05:50;;;;;;;3.03;2.13;;;16.50;99.90;;;;;;5065431;28;20749;-65
2023/10/10 15:08:18;;;;;;;3.30;2.17;;;16.50;99.90;;;;;;5065121;28;20675;-65
2023/10/10 15:10:44;;;;;;;2.07;1.60;;;16.50;99.90;;;;;;5065436;28;20211;-65
2023/10/10 15:13:15;;;;;;;3.10;2.07;;;16.50;99.90;;;;;;5059863;28;20693;-65
2023/10/10 15:15:47;;;;;;;4.13;1.90;;;16.50;99.90;;;;;;5048413;28;20211;-65
2023/10/10 15:18:15;;;;;;;3.90;1.83;;;16.50;99.90;;;;;;5065945;28;20211;-65
2023/10/10 15:20:46;;;;;;;3.60;2.00;;;16.50;99.90;;;;;;5062879;28;20852;-65